createdAt,value
2022-09-22T00:01:37.434Z,77.39
2022-09-22T00:04:08.375Z,77.42
2022-09-22T00:06:39.832Z,77.24
2022-09-22T00:09:12.248Z,77.04
2022-09-22T00:11:44.180Z,76.97
2022-09-22T00:14:16.859Z,77.18
2022-09-22T00:16:47.798Z,77.27
2022-09-22T00:19:19.863Z,77.15
2022-09-22T00:21:48.462Z,77.26
2022-09-22T00:24:18.975Z,77.02
2022-09-22T00:26:47.251Z,76.91
2022-09-22T00:29:17.434Z,77.07
2022-09-22T00:31:45.909Z,77.02
2022-09-22T00:34:17.301Z,77.11
2022-09-22T00:36:46.294Z,77.35
2022-09-22T00:39:16.162Z,77.44
2022-09-22T00:41:49.197Z,77.36
2022-09-22T00:44:41.331Z,77.16
2022-09-22T00:47:18.823Z,77.27
2022-09-22T00:50:12.904Z,77.16
2022-09-22T00:52:46.711Z,77.36
2022-09-22T00:55:53.798Z,77.41
2022-09-22T00:58:30.162Z,77.46
2022-09-22T01:00:58.679Z,77.13
2022-09-22T01:03:30.085Z,77.35
2022-09-22T01:06:01.974Z,77.50
2022-09-22T01:08:31.727Z,77.51
2022-09-22T01:11:01.169Z,77.65
2022-09-22T01:13:32.416Z,77.61
2022-09-22T01:16:09.743Z,77.49
2022-09-22T01:18:49.755Z,77.50
2022-09-22T01:21:20.514Z,77.58
2022-09-22T01:24:03.509Z,77.70
2022-09-22T01:26:58.820Z,77.65
2022-09-22T01:29:38.770Z,77.65
2022-09-22T01:32:17.379Z,77.64
2022-09-22T01:35:25.706Z,77.60
2022-09-22T01:38:04.833Z,77.69
2022-09-22T01:40:48.925Z,77.61
2022-09-22T01:43:49.616Z,77.63
2022-09-22T01:46:35.738Z,77.63
2022-09-22T01:49:08.793Z,77.54
2022-09-22T01:51:51.310Z,77.54
2022-09-22T01:54:42.010Z,77.69
2022-09-22T01:57:26.057Z,77.76
2022-09-22T02:00:01.806Z,77.83
2022-09-22T02:02:35.878Z,77.68
2022-09-22T02:05:09.317Z,77.59
2022-09-22T02:07:40.587Z,77.63
2022-09-22T02:10:13.655Z,77.61
2022-09-22T02:12:41.723Z,77.74
2022-09-22T02:15:30.936Z,77.78
2022-09-22T02:18:03.568Z,77.80
2022-09-22T02:20:33.927Z,77.71
2022-09-22T02:23:02.065Z,77.75
2022-09-22T02:25:30.576Z,77.81
2022-09-22T02:27:59.572Z,77.92
2022-09-22T02:30:28.556Z,77.73
2022-09-22T02:32:57.935Z,77.86
2022-09-22T02:35:30.205Z,77.71
2022-09-22T02:38:10.054Z,77.71
2022-09-22T02:40:56.761Z,77.64
2022-09-22T02:43:36.813Z,77.91
2022-09-22T02:46:33.388Z,77.80
2022-09-22T02:49:07.157Z,77.72
2022-09-22T02:51:35.836Z,77.87
2022-09-22T02:54:04.532Z,77.57
2022-09-22T02:56:33.829Z,77.64
2022-09-22T02:59:01.900Z,77.68
2022-09-22T03:01:30.114Z,77.84
2022-09-22T03:03:58.145Z,77.86
2022-09-22T03:06:26.215Z,78.00
2022-09-22T03:08:54.392Z,78.18
2022-09-22T03:11:22.462Z,78.02
2022-09-22T03:13:50.534Z,78.06
2022-09-22T03:16:18.708Z,78.11
2022-09-22T03:18:46.882Z,78.27
2022-09-22T03:21:15.467Z,78.22
2022-09-22T03:23:43.733Z,78.23
2022-09-22T03:26:11.812Z,78.22
2022-09-22T03:28:39.882Z,78.21
2022-09-22T03:31:08.115Z,78.11
2022-09-22T03:33:36.331Z,78.36
2022-09-22T03:36:05.886Z,78.40
2022-09-22T03:38:34.010Z,78.31
2022-09-22T03:41:03.108Z,78.40
2022-09-22T03:43:31.177Z,78.34
2022-09-22T03:46:01.058Z,78.50
2022-09-22T03:48:30.018Z,78.41
2022-09-22T03:50:58.568Z,78.54
2022-09-22T03:53:26.944Z,78.61
2022-09-22T03:56:08.374Z,78.67
2022-09-22T03:58:37.628Z,78.68
2022-09-22T04:01:07.467Z,78.63
2022-09-22T04:03:36.052Z,78.71
2022-09-22T04:06:05.451Z,78.80
2022-09-22T04:08:33.701Z,78.71
2022-09-22T04:11:02.082Z,78.69
2022-09-22T04:13:30.152Z,78.74
2022-09-22T04:15:58.530Z,78.44
2022-09-22T04:18:26.699Z,78.39
2022-09-22T04:20:58.902Z,78.42
2022-09-22T04:23:27.366Z,78.66
2022-09-22T04:25:55.526Z,78.88
2022-09-22T04:28:23.803Z,78.78
2022-09-22T04:30:51.917Z,78.69
2022-09-22T04:33:20.663Z,78.47
2022-09-22T04:35:49.846Z,78.60
2022-09-22T04:38:18.512Z,78.69
2022-09-22T04:40:46.891Z,78.61
2022-09-22T04:43:15.200Z,79.03
2022-09-22T04:45:47.341Z,78.68
2022-09-22T04:48:16.830Z,78.66
2022-09-22T04:50:48.048Z,78.58
2022-09-22T04:53:16.598Z,78.84
2022-09-22T04:55:44.663Z,78.94
2022-09-22T04:58:14.174Z,78.78
2022-09-22T05:00:42.451Z,78.94
2022-09-22T05:03:13.310Z,78.69
2022-09-22T05:05:41.562Z,78.85
2022-09-22T05:08:10.534Z,78.74
2022-09-22T05:10:38.729Z,78.79
2022-09-22T05:13:07.416Z,78.81
2022-09-22T05:15:35.596Z,78.71
2022-09-22T05:18:03.765Z,78.74
2022-09-22T05:20:31.839Z,78.55
2022-09-22T05:23:00.215Z,78.62
2022-09-22T05:25:28.387Z,78.60
2022-09-22T05:27:56.969Z,78.98
2022-09-22T05:30:27.297Z,78.95
2022-09-22T05:32:55.571Z,79.16
2022-09-22T05:35:25.133Z,78.89
2022-09-22T05:37:54.100Z,79.11
2022-09-22T05:40:24.352Z,79.26
2022-09-22T05:42:53.901Z,79.27
2022-09-22T05:45:22.381Z,79.41
2022-09-22T05:47:51.143Z,79.17
2022-09-22T05:50:21.116Z,79.22
2022-09-22T05:52:49.152Z,79.31
2022-09-22T05:55:17.429Z,79.38
2022-09-22T05:57:45.499Z,79.75
2022-09-22T06:00:14.325Z,79.76
2022-09-22T06:02:45.208Z,79.72
2022-09-22T06:05:17.265Z,79.39
2022-09-22T06:07:47.912Z,79.38
2022-09-22T06:10:15.995Z,79.64
2022-09-22T06:12:44.064Z,79.66
2022-09-22T06:15:12.138Z,79.67
2022-09-22T06:17:40.207Z,79.88
2022-09-22T06:20:09.294Z,79.45
2022-09-22T06:22:37.578Z,79.56
2022-09-22T06:25:09.266Z,79.63
2022-09-22T06:27:37.509Z,79.73
2022-09-22T06:30:07.928Z,80.08
2022-09-22T06:32:39.490Z,79.79
2022-09-22T06:35:08.393Z,79.87
2022-09-22T06:37:38.813Z,79.91
2022-09-22T06:40:09.335Z,79.63
2022-09-22T06:42:39.865Z,79.79
2022-09-22T06:45:09.094Z,79.64
2022-09-22T06:47:37.135Z,79.44
2022-09-22T06:50:06.111Z,79.34
2022-09-22T06:52:37.261Z,79.41
2022-09-22T06:55:07.363Z,79.41
2022-09-22T06:57:35.464Z,79.62
2022-09-22T07:00:04.663Z,79.51
2022-09-22T07:02:32.832Z,79.73
2022-09-22T07:05:00.903Z,79.47
2022-09-22T07:07:32.186Z,79.61
2022-09-22T07:10:00.325Z,79.77
2022-09-22T07:12:28.798Z,79.74
2022-09-22T07:14:58.309Z,79.53
2022-09-22T07:17:26.584Z,79.57
2022-09-22T07:19:56.501Z,79.35
2022-09-22T07:22:24.572Z,79.28
2022-09-22T07:24:52.643Z,79.40
2022-09-22T07:27:21.021Z,79.39
2022-09-22T07:29:49.195Z,79.52
2022-09-22T07:32:18.802Z,79.21
2022-09-22T07:34:47.592Z,79.37
2022-09-22T07:37:16.172Z,79.34
2022-09-22T07:39:45.869Z,79.37
2022-09-22T07:42:14.055Z,79.13
2022-09-22T07:45:00.765Z,79.17
2022-09-22T07:47:47.473Z,79.05
2022-09-22T07:50:17.592Z,78.92
2022-09-22T07:52:52.527Z,78.80
2022-09-22T07:55:25.512Z,78.84
2022-09-22T07:57:58.397Z,79.03
2022-09-22T08:00:33.305Z,78.84
2022-09-22T08:03:01.706Z,78.67
2022-09-22T08:05:30.189Z,78.76
2022-09-22T08:07:58.770Z,78.59
2022-09-22T08:10:26.814Z,78.46
2022-09-22T08:12:58.291Z,78.55
2022-09-22T08:15:27.519Z,78.68
2022-09-22T08:17:58.454Z,78.67
2022-09-22T08:20:29.396Z,78.46
2022-09-22T08:23:05.835Z,78.17
2022-09-22T08:25:34.624Z,77.97
2022-09-22T08:28:03.288Z,77.84
2022-09-22T08:30:31.423Z,77.53
2022-09-22T08:33:00.870Z,77.33
2022-09-22T08:35:29.161Z,77.29
2022-09-22T08:37:57.232Z,77.52
2022-09-22T08:40:25.363Z,77.18
2022-09-22T08:42:54.604Z,77.01
2022-09-22T08:45:37.216Z,76.96
2022-09-22T08:48:40.207Z,76.65
2022-09-22T08:51:37.359Z,76.40
2022-09-22T08:54:06.863Z,76.48
2022-09-22T08:57:02.890Z,76.24
2022-09-22T08:59:39.155Z,76.43
2022-09-22T09:02:43.983Z,76.40
2022-09-22T09:05:46.357Z,76.58
2022-09-22T09:08:35.221Z,76.45
2022-09-22T09:14:06.701Z,76.26
2022-09-22T09:16:58.829Z,76.31
2022-09-22T09:19:29.665Z,76.32
2022-09-22T09:22:02.547Z,76.35
2022-09-22T09:27:41.086Z,76.30
2022-09-22T09:30:18.269Z,76.09
2022-09-22T09:32:54.007Z,76.17
2022-09-22T09:35:26.898Z,76.23
2022-09-22T09:38:01.529Z,76.28
2022-09-22T09:40:30.088Z,75.91
2022-09-22T09:43:04.535Z,75.64
2022-09-22T09:46:03.457Z,75.88
2022-09-22T09:48:41.329Z,75.51
2022-09-22T09:51:14.008Z,75.71
2022-09-22T09:53:46.380Z,75.28
2022-09-22T09:56:28.687Z,75.27
2022-09-22T09:59:16.827Z,75.13
2022-09-22T10:01:48.214Z,74.95
2022-09-22T10:04:19.934Z,74.94
2022-09-22T10:06:49.133Z,74.97
2022-09-22T10:09:25.396Z,74.91
2022-09-22T10:12:02.675Z,74.92
2022-09-22T10:14:34.440Z,74.63
2022-09-22T10:17:04.252Z,74.28
2022-09-22T10:19:34.897Z,74.20
2022-09-22T10:22:24.868Z,73.93
2022-09-22T10:25:04.896Z,73.90
2022-09-22T10:27:32.943Z,73.84
2022-09-22T10:30:13.089Z,73.89
2022-09-22T10:32:41.708Z,74.12
2022-09-22T10:35:29.768Z,73.27
2022-09-22T10:38:04.171Z,73.23
2022-09-22T10:40:32.325Z,73.00
2022-09-22T10:43:01.151Z,72.77
2022-09-22T10:45:48.159Z,72.45
2022-09-22T10:48:26.709Z,72.60
2022-09-22T10:51:31.311Z,72.87
2022-09-22T10:54:19.454Z,71.99
2022-09-22T10:56:53.566Z,71.96
2022-09-22T10:59:35.218Z,72.33
2022-09-22T11:02:34.662Z,72.21
2022-09-22T11:05:59.771Z,72.15
2022-09-22T11:08:51.497Z,72.68
2022-09-22T11:11:59.000Z,72.60
2022-09-22T11:14:45.802Z,72.60
2022-09-22T11:17:45.322Z,72.58
2022-09-22T11:20:13.998Z,72.37
2022-09-22T11:22:49.135Z,72.44
2022-09-22T11:25:57.450Z,72.42
2022-09-22T11:28:56.935Z,71.61
2022-09-22T11:31:59.640Z,72.16
2022-09-22T11:34:37.541Z,71.77
2022-09-22T11:37:37.464Z,72.34
2022-09-22T11:40:08.322Z,71.71
2022-09-22T11:42:45.172Z,71.90
2022-09-22T11:45:48.568Z,72.10
2022-09-22T11:48:58.938Z,72.11
2022-09-22T11:51:52.708Z,72.31
2022-09-22T11:55:01.978Z,71.90
2022-09-22T11:57:36.776Z,71.89
2022-09-22T12:00:17.599Z,71.42
2022-09-22T12:02:55.169Z,71.16
2022-09-22T12:05:30.364Z,71.33
2022-09-22T12:08:26.404Z,71.49
2022-09-22T12:10:56.627Z,71.68
2022-09-22T12:13:31.354Z,71.46
2022-09-22T12:16:09.877Z,71.51
2022-09-22T12:18:58.837Z,71.53
2022-09-22T12:21:48.202Z,71.16
2022-09-22T12:24:16.581Z,71.19
2022-09-22T12:26:47.521Z,70.99
2022-09-22T12:29:15.488Z,71.07
2022-09-22T12:31:48.658Z,71.41
2022-09-22T12:34:35.182Z,71.53
2022-09-22T12:37:32.384Z,70.30
2022-09-22T12:40:18.962Z,71.33
2022-09-22T12:42:52.849Z,71.15
2022-09-22T12:45:43.484Z,70.95
2022-09-22T12:48:18.483Z,71.11
2022-09-22T12:50:46.657Z,71.02
2022-09-22T12:53:26.683Z,70.59
2022-09-22T12:55:58.499Z,70.49
2022-09-22T12:58:29.303Z,69.50
2022-09-22T13:01:32.788Z,69.53
2022-09-22T13:04:16.948Z,69.80
2022-09-22T13:06:44.929Z,70.05
2022-09-22T13:09:24.450Z,70.11
2022-09-22T13:12:11.784Z,69.48
2022-09-22T13:15:07.403Z,69.96
2022-09-22T13:17:43.563Z,68.92
2022-09-22T13:20:35.289Z,69.15
2022-09-22T13:23:13.125Z,69.40
2022-09-22T13:25:44.846Z,69.58
2022-09-22T13:28:15.117Z,69.75
2022-09-22T13:30:45.413Z,69.75
2022-09-22T13:33:18.480Z,69.80
2022-09-22T13:35:46.964Z,69.85
2022-09-22T13:38:15.470Z,69.84
2022-09-22T13:40:50.025Z,69.70
2022-09-22T13:43:32.781Z,69.45
2022-09-22T13:46:02.943Z,69.99
2022-09-22T13:48:37.935Z,70.16
2022-09-22T13:51:11.639Z,69.92
2022-09-22T13:53:51.694Z,70.27
2022-09-22T13:56:23.756Z,70.26
2022-09-22T13:58:57.306Z,70.67
2022-09-22T14:01:28.244Z,71.39
2022-09-22T14:03:56.827Z,71.76
2022-09-22T14:06:28.841Z,71.90
2022-09-22T14:08:58.040Z,72.36
2022-09-22T14:11:32.466Z,72.53
2022-09-22T14:14:02.098Z,72.36
2022-09-22T14:16:51.868Z,72.90
2022-09-22T14:19:43.778Z,72.96
2022-09-22T14:22:37.654Z,72.79
2022-09-22T14:25:22.827Z,72.65
2022-09-22T14:27:55.718Z,72.55
2022-09-22T14:30:31.367Z,72.40
2022-09-22T14:33:03.539Z,73.07
2022-09-22T14:35:32.932Z,73.01
2022-09-22T14:38:16.338Z,72.63
2022-09-22T14:40:58.972Z,72.24
2022-09-22T14:43:42.584Z,72.55
2022-09-22T14:46:41.941Z,72.58
2022-09-22T14:49:36.710Z,72.09
2022-09-22T14:52:15.329Z,72.19
2022-09-22T14:54:44.758Z,71.95
2022-09-22T14:57:16.694Z,72.10
2022-09-22T15:00:10.833Z,72.19
2022-09-22T15:02:41.705Z,72.16
2022-09-22T15:05:11.870Z,72.14
2022-09-22T15:07:48.511Z,71.64
2022-09-22T15:10:19.349Z,71.19
2022-09-22T15:12:49.770Z,71.42
2022-09-22T15:15:31.877Z,71.21
2022-09-22T15:18:19.104Z,71.02
2022-09-22T15:21:00.256Z,71.13
2022-09-22T15:23:45.042Z,71.43
2022-09-22T15:26:25.439Z,71.58
2022-09-22T15:28:57.980Z,71.68
2022-09-22T15:31:29.851Z,71.72
2022-09-22T15:34:03.035Z,71.90
2022-09-22T15:36:33.157Z,71.98
2022-09-22T15:39:22.217Z,72.02
2022-09-22T15:41:52.352Z,72.19
2022-09-22T15:44:20.911Z,72.53
2022-09-22T15:46:52.774Z,72.46
2022-09-22T15:49:25.055Z,72.59
2022-09-22T15:51:56.186Z,72.43
2022-09-22T15:54:26.418Z,72.27
2022-09-22T15:56:56.029Z,72.74
2022-09-22T15:59:28.604Z,72.81
2022-09-22T16:01:59.641Z,72.86
2022-09-22T16:04:33.956Z,72.74
2022-09-22T16:07:08.635Z,71.04
2022-09-22T16:09:37.264Z,70.08
2022-09-22T16:12:08.411Z,69.79
2022-09-22T16:14:37.082Z,69.90
2022-09-22T16:17:09.275Z,70.01
2022-09-22T16:19:37.337Z,70.09
2022-09-22T16:22:06.227Z,70.20
2022-09-22T16:24:34.300Z,70.05
2022-09-22T16:27:07.546Z,70.32
2022-09-22T16:29:37.634Z,70.34
2022-09-22T16:32:05.909Z,70.39
2022-09-22T16:34:36.214Z,70.62
2022-09-22T16:37:04.590Z,70.96
2022-09-22T16:39:32.663Z,70.78
2022-09-22T16:42:00.732Z,70.82
2022-09-22T16:44:28.813Z,71.24
2022-09-22T16:46:58.835Z,71.25
2022-09-22T16:49:27.302Z,71.40
2022-09-22T16:51:55.885Z,71.42
2022-09-22T16:54:25.086Z,71.41
2022-09-22T16:56:56.123Z,71.23
2022-09-22T16:59:24.401Z,71.80
2022-09-22T17:01:52.531Z,71.88
2022-09-22T17:04:20.747Z,71.91
2022-09-22T17:06:49.704Z,71.95
2022-09-22T17:09:18.355Z,72.20
2022-09-22T17:11:49.244Z,72.38
2022-09-22T17:14:25.832Z,72.34
2022-09-22T17:16:56.770Z,72.19
2022-09-22T17:19:27.854Z,72.13
2022-09-22T17:21:56.950Z,71.83
2022-09-22T17:24:26.720Z,71.10
2022-09-22T17:26:57.453Z,71.01
2022-09-22T17:29:28.957Z,70.11
2022-09-22T17:32:02.608Z,70.34
2022-09-22T17:34:33.114Z,70.33
2022-09-22T17:37:03.326Z,70.60
2022-09-22T17:39:32.450Z,70.81
2022-09-22T17:42:00.522Z,70.93
2022-09-22T17:44:33.655Z,70.81
2022-09-22T17:47:20.933Z,70.92
2022-09-22T17:50:07.474Z,70.91
2022-09-22T17:52:54.143Z,71.31
2022-09-22T17:55:25.463Z,71.67
2022-09-22T17:57:56.546Z,71.08
2022-09-22T18:00:26.242Z,71.15
2022-09-22T18:02:54.588Z,71.52
2022-09-22T18:05:27.235Z,71.44
2022-09-22T18:07:58.797Z,70.92
2022-09-22T18:10:31.064Z,70.68
2022-09-22T18:12:59.801Z,70.43
2022-09-22T18:15:28.284Z,70.49
2022-09-22T18:17:58.330Z,70.42
2022-09-22T18:20:27.898Z,70.48
2022-09-22T18:22:58.024Z,70.45
2022-09-22T18:25:28.447Z,70.71
2022-09-22T18:27:58.065Z,70.71
2022-09-22T18:30:26.740Z,70.63
2022-09-22T18:32:55.330Z,70.66
2022-09-22T18:35:24.625Z,70.69
2022-09-22T18:37:52.694Z,70.71
2022-09-22T18:40:20.929Z,70.72
2022-09-22T18:42:49.759Z,70.78
2022-09-22T18:45:17.829Z,71.05
2022-09-22T18:47:45.901Z,70.90
2022-09-22T18:50:13.971Z,70.79
2022-09-22T18:52:43.409Z,70.78
2022-09-22T18:55:19.022Z,70.93
2022-09-22T18:57:48.122Z,70.85
2022-09-22T19:00:16.867Z,70.88
2022-09-22T19:02:47.088Z,70.91
2022-09-22T19:05:15.406Z,70.85
2022-09-22T19:07:47.162Z,70.93
2022-09-22T19:10:20.886Z,70.75
2022-09-22T19:12:49.852Z,70.92
2022-09-22T19:15:19.276Z,71.05
2022-09-22T19:17:49.807Z,70.98
2022-09-22T19:20:24.208Z,71.08
2022-09-22T19:22:53.996Z,71.29
2022-09-22T19:25:22.710Z,71.52
2022-09-22T19:27:53.032Z,71.56
2022-09-22T19:30:24.785Z,71.70
2022-09-22T19:32:54.838Z,71.72
2022-09-22T19:35:23.394Z,71.82
2022-09-22T19:37:52.173Z,72.02
2022-09-22T19:40:24.604Z,71.96
2022-09-22T19:42:54.465Z,71.58
2022-09-22T19:45:24.379Z,71.78
2022-09-22T19:47:56.649Z,72.05
2022-09-22T19:50:25.906Z,72.26
2022-09-22T19:52:54.021Z,72.41
2022-09-22T19:55:22.399Z,72.42
2022-09-22T19:57:52.642Z,72.41
2022-09-22T20:00:26.452Z,72.34
2022-09-22T20:03:01.077Z,72.43
2022-09-22T20:05:36.812Z,72.32
2022-09-22T20:08:15.961Z,72.47
2022-09-22T20:10:49.402Z,72.53
2022-09-22T20:13:36.858Z,72.67
2022-09-22T20:16:05.078Z,72.67
2022-09-22T20:18:36.335Z,72.66
2022-09-22T20:21:10.390Z,72.81
2022-09-22T20:23:38.358Z,72.72
2022-09-22T20:26:06.737Z,72.61
2022-09-22T20:28:35.218Z,72.65
2022-09-22T20:31:03.333Z,72.70
2022-09-22T20:33:33.410Z,72.73
2022-09-22T20:36:01.583Z,72.64
2022-09-22T20:38:29.859Z,72.87
2022-09-22T20:41:01.394Z,72.85
2022-09-22T20:43:29.688Z,72.93
2022-09-22T20:46:04.985Z,73.08
2022-09-22T20:48:33.613Z,73.10
2022-09-22T20:51:02.830Z,73.09
2022-09-22T20:53:36.491Z,73.15
2022-09-22T20:56:07.454Z,73.29
2022-09-22T20:58:41.191Z,73.28
2022-09-22T21:01:11.121Z,73.45
2022-09-22T21:03:39.859Z,73.50
2022-09-22T21:06:10.065Z,73.63
2022-09-22T21:09:01.091Z,73.72
2022-09-22T21:11:30.320Z,73.65
2022-09-22T21:14:05.825Z,73.81
2022-09-22T21:16:37.489Z,73.72
2022-09-22T21:19:06.264Z,73.96
2022-09-22T21:21:38.042Z,73.96
2022-09-22T21:24:08.340Z,73.98
2022-09-22T21:26:36.454Z,74.09
2022-09-22T21:29:05.222Z,73.99
2022-09-22T21:31:34.532Z,73.85
2022-09-22T21:34:02.897Z,74.14
2022-09-22T21:36:30.969Z,74.25
2022-09-22T21:39:00.639Z,74.26
2022-09-22T21:41:31.412Z,74.29
2022-09-22T21:44:00.239Z,74.28
2022-09-22T21:46:30.059Z,74.35
2022-09-22T21:49:01.839Z,74.14
2022-09-22T21:51:39.466Z,74.03
2022-09-22T21:54:08.264Z,73.94
2022-09-22T21:56:36.435Z,74.22
2022-09-22T21:59:05.448Z,74.33
2022-09-22T22:01:45.831Z,74.52
2022-09-22T22:04:15.366Z,74.50
2022-09-22T22:06:45.892Z,74.38
2022-09-22T22:09:19.323Z,74.49
2022-09-22T22:11:53.405Z,74.39
2022-09-22T22:14:22.847Z,74.54
2022-09-22T22:16:53.466Z,74.54
2022-09-22T22:19:25.115Z,74.62
2022-09-22T22:21:54.051Z,74.72
2022-09-22T22:24:24.740Z,74.69
2022-09-22T22:26:57.262Z,74.59
2022-09-22T22:29:27.641Z,74.62
2022-09-22T22:31:55.815Z,74.58
2022-09-22T22:34:26.343Z,74.60
2022-09-22T22:36:56.156Z,74.68
2022-09-22T22:39:24.636Z,74.76
2022-09-22T22:41:55.332Z,74.76
2022-09-22T22:44:23.544Z,74.88
2022-09-22T22:46:51.615Z,74.76
2022-09-22T22:49:20.219Z,74.60
2022-09-22T22:51:49.705Z,74.68
2022-09-22T22:54:17.775Z,74.83
2022-09-22T22:56:50.164Z,74.86
2022-09-22T22:59:19.682Z,74.75
2022-09-22T23:01:47.883Z,74.85
2022-09-22T23:04:17.163Z,74.89
2022-09-22T23:06:45.510Z,74.94
2022-09-22T23:09:16.238Z,74.97
2022-09-22T23:11:46.674Z,75.04
2022-09-22T23:14:16.475Z,75.21
2022-09-22T23:16:47.003Z,75.35
2022-09-22T23:19:19.460Z,75.43
2022-09-22T23:21:47.863Z,75.44
2022-09-22T23:24:19.276Z,75.07
2022-09-22T23:26:47.687Z,75.31
2022-09-22T23:29:15.862Z,75.30
2022-09-22T23:31:44.037Z,75.39
2022-09-22T23:34:12.106Z,75.52
2022-09-22T23:36:40.694Z,75.63
2022-09-22T23:39:11.833Z,75.53
2022-09-22T23:41:40.006Z,75.65
2022-09-22T23:44:08.209Z,75.68
2022-09-22T23:46:38.403Z,75.92
2022-09-22T23:49:07.089Z,76.00
2022-09-22T23:51:35.077Z,75.92
2022-09-22T23:54:03.129Z,76.02
2022-09-22T23:56:31.202Z,76.04
2022-09-22T23:58:59.374Z,75.96
